KAMG/AMG METAR and TAF weather

Enter ICAO airport designator
Station Type Date Time Source
KAMG METAR 2021/05/12 00:53 UTC NOAA

KAMG 120053Z AUTO 17008KT 10SM FEW055 23/19 A3002 RMK AO2 SLP163 T02330189


Station Type Date Time Source
KAMG Decoded METAR 2021/05/12 00:53 UTC NOAA

ALMA BACON COUNTY AIRPORT, GA, United States (KAMG) 31-32N 82-30W 59M
May 11, 2021 - 08:53 PM EDT / 2021.05.12 0053 UTC
Wind: from the S (170 degrees) at 9 MPH (8 KT):0
Visibility: 10 mile(s):0
Sky conditions: mostly clear
Temperature: 73.9 F (23.3 C)
Dew Point: 66.0 F (18.9 C)
Relative Humidity: 76%
Pressure (altimeter): 30.02 in. Hg (1016 hPa)
ob: KAMG 120053Z AUTO 17008KT 10SM FEW055 23/19 A3002 RMK AO2 SLP163 T02330189
cycle: 1

Station Type Date Time Source
KAMG TAF UTC NOAA

Error!

Example: see airport list